createdAt,value
2019-01-23T00:01:15.713Z,87.44
2019-01-23T00:03:23.636Z,87.41
2019-01-23T00:05:30.799Z,87.36
2019-01-23T00:07:37.222Z,87.36
2019-01-23T00:09:45.064Z,87.25
2019-01-23T00:11:51.531Z,87.21
2019-01-23T00:13:59.639Z,87.11
2019-01-23T00:16:06.231Z,86.98
2019-01-23T00:18:12.251Z,86.96
2019-01-23T00:20:20.291Z,87.03
2019-01-23T00:22:26.610Z,86.97
2019-01-23T00:24:32.890Z,86.97
2019-01-23T00:26:39.249Z,86.90
2019-01-23T00:28:47.061Z,86.80
2019-01-23T00:30:54.851Z,86.72
2019-01-23T00:33:01.296Z,86.72
2019-01-23T00:35:09.092Z,86.67
2019-01-23T00:37:15.253Z,86.60
2019-01-23T00:39:21.623Z,86.59
2019-01-23T00:41:29.423Z,86.59
2019-01-23T00:43:35.905Z,86.51
2019-01-23T00:45:43.071Z,86.46
2019-01-23T00:47:49.629Z,86.48
2019-01-23T00:49:55.947Z,86.38
2019-01-23T00:52:04.189Z,86.41
2019-01-23T00:54:12.497Z,86.39
2019-01-23T00:56:20.400Z,86.21
2019-01-23T00:58:27.780Z,86.24
2019-01-23T01:00:33.880Z,86.22
2019-01-23T01:02:41.766Z,86.32
2019-01-23T01:04:47.898Z,86.18
2019-01-23T01:06:54.154Z,86.17
2019-01-23T01:09:02.156Z,86.13
2019-01-23T01:11:09.946Z,85.97
2019-01-23T01:13:16.218Z,85.94
2019-01-23T01:15:22.725Z,85.78
2019-01-23T01:17:29.932Z,85.78
2019-01-23T01:19:36.277Z,85.66
2019-01-23T01:21:42.374Z,85.60
2019-01-23T01:23:48.732Z,85.65
2019-01-23T01:25:55.524Z,85.59
2019-01-23T01:28:02.002Z,85.49
2019-01-23T01:30:12.462Z,85.32
2019-01-23T01:32:18.913Z,85.26
2019-01-23T01:34:25.281Z,85.27
2019-01-23T01:36:31.963Z,85.11
2019-01-23T01:38:39.521Z,85.10
2019-01-23T01:40:46.501Z,85.10
2019-01-23T01:42:54.508Z,84.95
2019-01-23T01:45:01.865Z,84.80
2019-01-23T01:47:08.565Z,84.89
2019-01-23T01:49:15.224Z,85.08
2019-01-23T01:51:21.529Z,85.13
2019-01-23T01:53:29.368Z,85.19
2019-01-23T01:55:35.757Z,85.22
2019-01-23T01:57:44.040Z,85.15
2019-01-23T01:59:51.651Z,85.08
2019-01-23T02:01:58.003Z,85.02
2019-01-23T02:04:04.840Z,84.92
2019-01-23T02:06:10.930Z,84.95
2019-01-23T02:08:18.428Z,84.86
2019-01-23T02:10:24.678Z,84.85
2019-01-23T02:12:32.378Z,84.72
2019-01-23T02:14:40.067Z,84.70
2019-01-23T02:16:46.227Z,84.71
2019-01-23T02:18:52.908Z,84.69
2019-01-23T02:21:01.427Z,84.72
2019-01-23T02:23:07.699Z,84.79
2019-01-23T02:25:13.941Z,84.88
2019-01-23T02:27:20.301Z,84.77
2019-01-23T02:29:29.511Z,84.87
2019-01-23T02:31:35.930Z,84.92
2019-01-23T02:33:42.354Z,85.12
2019-01-23T02:35:48.812Z,85.15
2019-01-23T02:37:55.182Z,85.15
2019-01-23T02:40:02.270Z,85.20
2019-01-23T02:42:08.841Z,85.29
2019-01-23T02:44:15.095Z,85.48
2019-01-23T02:46:23.079Z,85.58
2019-01-23T02:48:31.099Z,85.63
2019-01-23T02:50:39.288Z,85.58
2019-01-23T02:52:45.709Z,85.55
2019-01-23T02:54:51.919Z,85.75
2019-01-23T02:56:58.278Z,85.87
2019-01-23T02:59:04.639Z,85.96
2019-01-23T03:01:11.000Z,85.94
2019-01-23T03:03:18.284Z,86.03
2019-01-23T03:05:26.485Z,85.99
2019-01-23T03:07:32.763Z,86.11
2019-01-23T03:09:40.776Z,85.96
2019-01-23T03:11:50.195Z,85.95
2019-01-23T03:13:56.405Z,86.05
2019-01-23T03:16:02.625Z,86.16
2019-01-23T03:18:08.773Z,86.30
2019-01-23T03:20:18.353Z,86.35
2019-01-23T03:22:25.169Z,86.46
2019-01-23T03:24:31.548Z,86.54
2019-01-23T03:26:38.317Z,86.54
2019-01-23T03:28:44.757Z,86.59
2019-01-23T03:30:53.910Z,86.58
2019-01-23T03:33:00.370Z,86.50
2019-01-23T03:35:09.828Z,86.40
2019-01-23T03:37:16.734Z,86.34
2019-01-23T03:39:22.931Z,86.42
2019-01-23T03:41:29.913Z,86.36
2019-01-23T03:43:37.747Z,86.35
2019-01-23T03:45:44.281Z,86.37
2019-01-23T03:47:50.437Z,86.34
2019-01-23T03:49:57.254Z,86.38
2019-01-23T03:52:03.853Z,86.44
2019-01-23T03:54:10.452Z,86.56
2019-01-23T03:56:17.132Z,86.70
2019-01-23T03:58:23.932Z,86.73
2019-01-23T04:00:32.332Z,86.73
2019-01-23T04:02:38.971Z,86.72
2019-01-23T04:04:45.854Z,86.73
2019-01-23T04:06:52.652Z,86.62
2019-01-23T04:09:00.096Z,86.62
2019-01-23T04:11:06.677Z,86.57
2019-01-23T04:13:14.540Z,86.57
2019-01-23T04:15:22.344Z,86.58
2019-01-23T04:17:29.676Z,86.66
2019-01-23T04:19:36.157Z,86.61
2019-01-23T04:21:43.001Z,86.55
2019-01-23T04:23:49.321Z,86.68
2019-01-23T04:25:56.092Z,86.47
2019-01-23T04:28:02.317Z,86.33
2019-01-23T04:30:18.367Z,86.21
2019-01-23T04:32:24.417Z,86.15
2019-01-23T04:34:30.767Z,86.09
2019-01-23T04:36:37.158Z,86.06
2019-01-23T04:38:43.620Z,86.10
2019-01-23T04:40:49.869Z,86.23
2019-01-23T04:42:56.144Z,86.28
2019-01-23T04:45:06.595Z,86.21
2019-01-23T04:47:12.955Z,86.29
2019-01-23T04:49:19.116Z,86.46
2019-01-23T04:51:32.954Z,86.58
2019-01-23T04:53:42.185Z,86.55
2019-01-23T04:55:48.858Z,86.55
2019-01-23T04:57:55.326Z,86.54
2019-01-23T05:00:01.467Z,86.61
2019-01-23T05:02:07.885Z,86.70
2019-01-23T05:04:14.077Z,86.62
2019-01-23T05:06:22.100Z,86.61
2019-01-23T05:08:28.350Z,86.49
2019-01-23T05:10:34.926Z,86.37
2019-01-23T05:12:41.197Z,86.38
2019-01-23T05:14:48.679Z,86.40
2019-01-23T05:16:55.302Z,86.37
2019-01-23T05:19:03.668Z,86.32
2019-01-23T05:21:11.657Z,86.24
2019-01-23T05:23:18.113Z,86.17
2019-01-23T05:25:24.471Z,86.22
2019-01-23T05:27:31.039Z,86.06
2019-01-23T05:29:37.600Z,85.94
2019-01-23T05:31:43.763Z,85.76
2019-01-23T05:33:51.282Z,85.68
2019-01-23T05:35:57.664Z,85.50
2019-01-23T05:38:03.668Z,85.36
2019-01-23T05:40:10.678Z,85.19
2019-01-23T05:42:17.016Z,85.11
2019-01-23T05:44:23.175Z,85.16
2019-01-23T05:46:59.749Z,85.06
2019-01-23T05:49:07.657Z,85.16
2019-01-23T05:51:16.571Z,85.33
2019-01-23T05:53:23.793Z,85.39
2019-01-23T05:55:30.942Z,85.23
2019-01-23T05:57:37.304Z,85.03
2019-01-23T05:59:46.382Z,84.89
2019-01-23T06:01:53.083Z,84.93
2019-01-23T06:04:02.582Z,84.69
2019-01-23T06:06:09.106Z,84.55
2019-01-23T06:08:15.525Z,84.68
2019-01-23T06:10:21.721Z,84.66
2019-01-23T06:12:29.403Z,84.48
2019-01-23T06:14:35.795Z,84.48
2019-01-23T06:16:50.123Z,84.59
2019-01-23T06:18:58.924Z,84.40
2019-01-23T06:21:08.063Z,84.32
2019-01-23T06:23:14.383Z,84.02
2019-01-23T06:25:20.708Z,84.04
2019-01-23T06:27:28.471Z,84.09
2019-01-23T06:29:36.276Z,84.08
2019-01-23T06:31:42.446Z,84.21
2019-01-23T06:33:48.843Z,84.21
2019-01-23T06:35:56.653Z,84.27
2019-01-23T06:38:02.866Z,84.29
2019-01-23T06:40:12.963Z,84.20
2019-01-23T06:42:19.391Z,84.16
2019-01-23T06:44:26.378Z,84.29
2019-01-23T06:46:32.641Z,84.26
2019-01-23T06:48:42.147Z,84.25
2019-01-23T06:50:49.483Z,84.18
2019-01-23T06:52:55.588Z,84.16
2019-01-23T06:55:02.283Z,83.95
2019-01-23T06:57:08.337Z,84.03
2019-01-23T06:59:14.369Z,84.02
2019-01-23T07:01:20.430Z,83.99
2019-01-23T07:03:26.857Z,83.79
2019-01-23T07:05:33.378Z,83.81
2019-01-23T07:07:39.516Z,83.86
2019-01-23T07:09:45.683Z,83.81
2019-01-23T07:11:54.799Z,83.70
2019-01-23T07:14:01.057Z,83.73
2019-01-23T07:16:07.356Z,85.16
2019-01-23T07:18:14.630Z,83.65
2019-01-23T07:20:23.729Z,83.48
2019-01-23T07:22:31.880Z,83.41
2019-01-23T07:24:38.101Z,83.56
2019-01-23T07:26:47.013Z,83.29
2019-01-23T07:28:53.484Z,83.36
2019-01-23T07:30:59.754Z,83.14
2019-01-23T07:33:09.584Z,83.19
2019-01-23T07:35:18.394Z,83.15
2019-01-23T07:37:26.221Z,82.92
2019-01-23T07:39:32.362Z,82.89
2019-01-23T07:41:38.463Z,82.65
2019-01-23T07:43:44.509Z,82.79
2019-01-23T07:45:51.301Z,82.75
2019-01-23T07:47:57.315Z,82.77
2019-01-23T07:50:03.436Z,82.76
2019-01-23T07:52:09.501Z,82.72
2019-01-23T07:54:15.565Z,82.56
2019-01-23T07:56:21.723Z,82.33
2019-01-23T07:58:28.074Z,82.21
2019-01-23T08:00:34.394Z,82.05
2019-01-23T08:02:42.953Z,82.06
2019-01-23T08:04:49.158Z,81.87
2019-01-23T08:06:55.173Z,81.63
2019-01-23T08:09:04.153Z,81.67
2019-01-23T08:11:11.997Z,81.58
2019-01-23T08:13:18.290Z,81.48
2019-01-23T08:15:31.269Z,81.46
2019-01-23T08:17:37.428Z,81.28
2019-01-23T08:19:43.881Z,81.28
2019-01-23T08:21:50.414Z,81.15
2019-01-23T08:23:57.530Z,81.40
2019-01-23T08:26:03.846Z,81.50
2019-01-23T08:28:11.803Z,81.43
2019-01-23T08:30:22.250Z,81.50
2019-01-23T08:32:28.511Z,81.64
2019-01-23T08:34:34.678Z,81.36
2019-01-23T08:36:41.099Z,81.00
2019-01-23T08:38:47.402Z,80.71
2019-01-23T08:40:53.813Z,80.00
2019-01-23T08:43:00.218Z,79.34
2019-01-23T08:45:09.803Z,79.17
2019-01-23T08:47:16.345Z,78.96
2019-01-23T08:49:22.813Z,78.60
2019-01-23T08:51:29.038Z,78.07
2019-01-23T08:53:35.322Z,77.58
2019-01-23T08:55:41.583Z,76.81
2019-01-23T08:57:47.954Z,77.59
2019-01-23T08:59:55.476Z,76.49
2019-01-23T09:02:01.713Z,76.70
2019-01-23T09:04:08.094Z,76.35
2019-01-23T09:06:14.744Z,76.72
2019-01-23T09:08:21.975Z,75.46
2019-01-23T09:10:30.271Z,75.52
2019-01-23T09:12:36.752Z,75.53
2019-01-23T09:14:42.852Z,75.82
2019-01-23T09:16:48.937Z,75.95
2019-01-23T09:18:57.961Z,75.40
2019-01-23T09:21:05.503Z,75.32
2019-01-23T09:23:11.768Z,75.86
2019-01-23T09:25:24.690Z,74.88
2019-01-23T09:27:31.968Z,75.62
2019-01-23T09:29:41.309Z,74.67
2019-01-23T09:32:04.578Z,74.38
2019-01-23T09:34:18.389Z,75.04
2019-01-23T09:36:33.998Z,74.85
2019-01-23T09:39:11.986Z,74.35
2019-01-23T09:41:31.627Z,74.05
2019-01-23T09:43:50.412Z,73.65
2019-01-23T09:46:27.900Z,74.34
2019-01-23T09:49:00.091Z,74.16
2019-01-23T09:51:47.582Z,74.63
2019-01-23T09:54:02.772Z,74.32
2019-01-23T09:56:13.068Z,74.56
2019-01-23T09:58:31.644Z,73.77
2019-01-23T10:00:42.512Z,73.37
2019-01-23T10:02:51.658Z,73.44
2019-01-23T10:05:01.079Z,73.63
2019-01-23T10:07:10.655Z,73.22
2019-01-23T10:09:16.896Z,72.96
2019-01-23T10:11:25.651Z,73.23
2019-01-23T10:13:31.692Z,73.29
2019-01-23T10:15:46.195Z,72.72
2019-01-23T10:17:55.755Z,72.56
2019-01-23T10:20:02.024Z,73.31
2019-01-23T10:22:08.617Z,72.72
2019-01-23T10:24:14.920Z,72.58
2019-01-23T10:26:21.551Z,72.64
2019-01-23T10:28:29.207Z,71.96
2019-01-23T10:30:36.373Z,71.75
2019-01-23T10:32:42.654Z,72.03
2019-01-23T10:34:49.232Z,71.43
2019-01-23T10:36:57.483Z,71.11
2019-01-23T10:39:06.573Z,71.39
2019-01-23T10:41:12.923Z,70.58
2019-01-23T10:43:19.167Z,70.43
2019-01-23T10:45:28.778Z,70.91
2019-01-23T10:47:36.263Z,71.00
2019-01-23T10:49:43.962Z,70.61
2019-01-23T10:51:50.539Z,70.87
2019-01-23T10:53:57.809Z,71.08
2019-01-23T10:56:04.205Z,71.07
2019-01-23T10:58:11.039Z,70.83
2019-01-23T11:00:23.347Z,69.98
2019-01-23T11:02:29.684Z,69.86
2019-01-23T11:04:35.951Z,71.10
2019-01-23T11:06:42.111Z,70.81
2019-01-23T11:08:50.264Z,70.44
2019-01-23T11:10:56.604Z,70.63
2019-01-23T11:13:04.021Z,70.63
2019-01-23T11:15:11.433Z,70.56
2019-01-23T11:17:18.236Z,70.57
2019-01-23T11:19:24.572Z,69.59
2019-01-23T11:21:31.021Z,69.33
2019-01-23T11:23:39.711Z,69.04
2019-01-23T11:25:46.005Z,69.26
2019-01-23T11:27:52.498Z,69.35
2019-01-23T11:29:59.130Z,68.77
2019-01-23T11:32:05.704Z,67.71
2019-01-23T11:34:13.192Z,67.66
2019-01-23T11:36:19.427Z,68.01
2019-01-23T11:38:25.633Z,67.81
2019-01-23T11:40:32.880Z,67.31
2019-01-23T11:42:39.161Z,67.16
2019-01-23T11:44:47.028Z,65.73
2019-01-23T11:46:53.311Z,65.55
2019-01-23T11:49:00.188Z,65.92
2019-01-23T11:51:06.659Z,66.53
2019-01-23T11:53:12.970Z,66.97
2019-01-23T11:55:20.418Z,66.13
2019-01-23T11:57:29.129Z,65.71
2019-01-23T11:59:40.798Z,66.77
2019-01-23T12:01:47.653Z,66.25
2019-01-23T12:03:57.110Z,66.07
2019-01-23T12:06:05.206Z,66.30
2019-01-23T12:08:11.522Z,65.74
2019-01-23T12:10:23.332Z,65.88
2019-01-23T12:12:29.882Z,65.62
2019-01-23T12:14:36.766Z,65.83
2019-01-23T12:16:46.279Z,64.94
2019-01-23T12:18:55.568Z,65.16
2019-01-23T12:21:03.250Z,65.73
2019-01-23T12:23:10.039Z,65.46
2019-01-23T12:25:18.289Z,65.80
2019-01-23T12:27:24.501Z,65.53
2019-01-23T12:29:31.927Z,66.35
2019-01-23T12:31:38.634Z,66.70
2019-01-23T12:33:45.939Z,66.02
2019-01-23T12:35:53.536Z,66.06
2019-01-23T12:38:00.853Z,66.41
2019-01-23T12:40:13.183Z,65.92
2019-01-23T12:42:19.515Z,65.67
2019-01-23T12:44:26.048Z,66.19
2019-01-23T12:46:32.375Z,66.03
2019-01-23T12:48:38.675Z,65.78
2019-01-23T12:50:45.138Z,65.72
2019-01-23T12:52:54.494Z,65.34
2019-01-23T12:55:01.188Z,65.26
2019-01-23T12:57:07.808Z,65.48
2019-01-23T12:59:14.436Z,64.92
2019-01-23T13:01:20.952Z,64.99
2019-01-23T13:03:30.687Z,65.03
2019-01-23T13:05:37.448Z,64.71
2019-01-23T13:07:45.315Z,64.56
2019-01-23T13:09:52.977Z,64.49
2019-01-23T13:12:01.924Z,63.98
2019-01-23T13:14:08.143Z,63.46
2019-01-23T13:16:14.717Z,63.37
2019-01-23T13:18:21.168Z,63.68
2019-01-23T13:20:28.723Z,63.41
2019-01-23T13:22:37.586Z,63.48
2019-01-23T13:24:47.173Z,63.38
2019-01-23T13:26:53.894Z,63.34
2019-01-23T13:29:00.163Z,63.87
2019-01-23T13:31:06.870Z,64.22
2019-01-23T13:33:12.984Z,64.36
2019-01-23T13:35:26.614Z,64.53
2019-01-23T13:37:33.550Z,64.87
2019-01-23T13:39:40.940Z,65.41
2019-01-23T13:41:48.647Z,65.39
2019-01-23T13:43:55.108Z,65.11
2019-01-23T13:46:01.478Z,65.45
2019-01-23T13:48:10.098Z,65.58
2019-01-23T13:50:17.838Z,65.69
2019-01-23T13:52:26.628Z,65.70
2019-01-23T13:54:33.077Z,65.52
2019-01-23T13:56:39.452Z,65.02
2019-01-23T13:58:49.008Z,65.23
2019-01-23T14:00:55.347Z,64.98
2019-01-23T14:03:06.475Z,64.55
2019-01-23T14:05:14.877Z,64.45
2019-01-23T14:07:32.060Z,65.09
2019-01-23T14:09:38.935Z,65.31
2019-01-23T14:11:46.649Z,65.55
2019-01-23T14:13:52.858Z,65.90
2019-01-23T14:15:59.189Z,66.53
2019-01-23T14:18:06.526Z,66.49
2019-01-23T14:20:16.362Z,66.85
2019-01-23T14:22:22.844Z,67.08
2019-01-23T14:24:29.127Z,66.94
2019-01-23T14:26:37.538Z,67.28
2019-01-23T14:28:43.921Z,67.64
2019-01-23T14:30:50.433Z,67.69
2019-01-23T14:32:57.226Z,67.74
2019-01-23T14:35:03.477Z,67.91
2019-01-23T14:37:11.490Z,68.03
2019-01-23T14:39:17.831Z,68.21
2019-01-23T14:41:27.176Z,68.34
2019-01-23T14:43:34.155Z,68.52
2019-01-23T14:45:40.826Z,68.67
2019-01-23T14:47:47.219Z,68.80
2019-01-23T14:49:54.956Z,68.57
2019-01-23T14:52:02.628Z,68.42
2019-01-23T14:54:09.014Z,68.30
2019-01-23T14:56:15.727Z,68.45
2019-01-23T14:58:23.835Z,68.32
2019-01-23T15:00:34.495Z,68.25
2019-01-23T15:02:42.051Z,68.27
2019-01-23T15:04:50.574Z,68.32
2019-01-23T15:06:57.488Z,68.44
2019-01-23T15:09:04.248Z,68.69
2019-01-23T15:11:10.672Z,68.85
2019-01-23T15:13:17.814Z,68.55
2019-01-23T15:15:27.895Z,68.54
2019-01-23T15:17:35.905Z,68.79
2019-01-23T15:19:43.864Z,68.81
2019-01-23T15:21:50.182Z,68.77
2019-01-23T15:23:57.922Z,68.87
2019-01-23T15:26:06.097Z,68.94
2019-01-23T15:28:12.425Z,68.95
2019-01-23T15:30:23.834Z,68.94
2019-01-23T15:32:30.167Z,69.14
2019-01-23T15:34:36.768Z,69.08
2019-01-23T15:36:43.988Z,69.21
2019-01-23T15:38:50.395Z,69.32
2019-01-23T15:40:56.604Z,69.66
2019-01-23T15:43:05.722Z,69.84
2019-01-23T15:45:12.219Z,70.13
2019-01-23T15:47:19.749Z,70.41
2019-01-23T15:49:26.988Z,70.45
2019-01-23T15:51:33.918Z,70.68
2019-01-23T15:53:40.258Z,70.81
2019-01-23T15:55:46.791Z,70.87
2019-01-23T15:57:54.617Z,71.13
2019-01-23T16:00:01.650Z,71.39
2019-01-23T16:02:09.655Z,71.48
2019-01-23T16:04:16.722Z,71.73
2019-01-23T16:06:22.842Z,71.77
2019-01-23T16:08:31.608Z,72.14
2019-01-23T16:10:38.821Z,72.31
2019-01-23T16:12:47.148Z,72.34
2019-01-23T16:14:53.869Z,72.36
2019-01-23T16:17:00.441Z,72.35
2019-01-23T16:19:06.889Z,72.22
2019-01-23T16:21:13.601Z,71.96
2019-01-23T16:23:20.015Z,71.69
2019-01-23T16:25:27.672Z,70.96
2019-01-23T16:27:36.062Z,70.96
2019-01-23T16:29:42.692Z,70.50
2019-01-23T16:31:48.902Z,70.46
2019-01-23T16:33:55.590Z,69.98
2019-01-23T16:36:02.305Z,70.04
2019-01-23T16:38:09.402Z,70.05
2019-01-23T16:40:15.900Z,70.00
2019-01-23T16:42:23.759Z,70.07
2019-01-23T16:44:30.418Z,69.96
2019-01-23T16:46:37.432Z,70.12
2019-01-23T16:48:43.905Z,69.81
2019-01-23T16:50:50.172Z,69.98
2019-01-23T16:52:56.730Z,70.02
2019-01-23T16:55:03.144Z,69.85
2019-01-23T16:57:09.552Z,69.92
2019-01-23T16:59:17.111Z,70.01
2019-01-23T17:01:23.885Z,69.85
2019-01-23T17:03:30.620Z,70.10
2019-01-23T17:05:37.089Z,70.12
2019-01-23T17:07:44.032Z,70.27
2019-01-23T17:09:50.802Z,70.37
2019-01-23T17:11:57.393Z,70.64
2019-01-23T17:14:04.019Z,70.43
2019-01-23T17:16:10.522Z,70.48
2019-01-23T17:18:17.400Z,70.08
2019-01-23T17:20:40.081Z,69.89
2019-01-23T17:22:46.692Z,69.92
2019-01-23T17:24:53.272Z,69.21
2019-01-23T17:26:59.853Z,68.53
2019-01-23T17:29:06.512Z,68.68
2019-01-23T17:31:13.052Z,68.31
2019-01-23T17:33:21.828Z,68.71
2019-01-23T17:35:28.381Z,68.26
2019-01-23T17:37:35.069Z,68.47
2019-01-23T17:39:41.959Z,68.42
2019-01-23T17:41:49.089Z,68.25
2019-01-23T17:43:55.812Z,68.29
2019-01-23T17:46:02.493Z,68.07
2019-01-23T17:48:11.952Z,67.77
2019-01-23T17:50:21.550Z,67.53
2019-01-23T17:52:29.242Z,67.61
2019-01-23T17:54:36.575Z,67.26
2019-01-23T17:56:43.485Z,67.54
2019-01-23T17:58:52.134Z,67.23
2019-01-23T18:01:00.011Z,67.08
2019-01-23T18:03:06.963Z,67.06
2019-01-23T18:05:14.036Z,67.08
2019-01-23T18:07:20.943Z,66.74
2019-01-23T18:09:28.031Z,66.92
2019-01-23T18:11:35.411Z,66.95
2019-01-23T18:13:43.147Z,67.16
2019-01-23T18:15:49.973Z,66.98
2019-01-23T18:17:56.803Z,66.76
2019-01-23T18:20:04.950Z,66.96
2019-01-23T18:22:12.543Z,67.02
2019-01-23T18:24:19.206Z,66.99
2019-01-23T18:26:26.470Z,67.10
2019-01-23T18:28:33.443Z,67.25
2019-01-23T18:30:53.623Z,67.50
2019-01-23T18:33:02.302Z,67.51
2019-01-23T18:35:23.623Z,67.65
2019-01-23T18:37:43.850Z,67.98
2019-01-23T18:40:11.861Z,68.31
2019-01-23T18:42:53.844Z,68.82
2019-01-23T18:45:05.913Z,69.04
2019-01-23T18:47:52.663Z,68.75
2019-01-23T18:50:34.743Z,69.18
2019-01-23T18:52:51.369Z,69.67
2019-01-23T18:54:56.132Z,70.01
2019-01-23T18:57:03.144Z,70.28
2019-01-23T18:59:10.471Z,70.17
2019-01-23T19:01:17.312Z,70.33
2019-01-23T19:03:24.148Z,70.59
2019-01-23T19:05:31.182Z,70.85
2019-01-23T19:07:38.202Z,71.17
2019-01-23T19:09:45.053Z,71.34
2019-01-23T19:11:51.983Z,71.60
2019-01-23T19:13:59.052Z,71.82
2019-01-23T19:16:07.760Z,72.14
2019-01-23T19:18:20.702Z,72.51
2019-01-23T19:20:31.593Z,72.64
2019-01-23T19:22:39.101Z,72.85
2019-01-23T19:24:46.509Z,72.96
2019-01-23T19:26:53.498Z,73.13
2019-01-23T19:29:00.363Z,73.20
2019-01-23T19:31:07.562Z,73.47
2019-01-23T19:33:15.121Z,73.68
2019-01-23T19:35:23.047Z,73.63
2019-01-23T19:37:31.935Z,73.98
2019-01-23T19:39:39.120Z,74.02
2019-01-23T19:41:46.001Z,74.15
2019-01-23T19:43:53.136Z,74.21
2019-01-23T19:46:00.646Z,74.40
2019-01-23T19:48:07.812Z,74.59
2019-01-23T19:50:15.835Z,74.76
2019-01-23T19:52:22.622Z,74.76
2019-01-23T19:54:29.403Z,74.81
2019-01-23T19:56:36.442Z,74.99
2019-01-23T19:58:43.995Z,75.04
2019-01-23T20:00:52.745Z,75.07
2019-01-23T20:03:01.049Z,75.09
2019-01-23T20:05:13.279Z,75.06
2019-01-23T20:07:20.067Z,75.17
2019-01-23T20:09:27.068Z,75.17
2019-01-23T20:11:34.227Z,75.29
2019-01-23T20:13:41.099Z,75.59
2019-01-23T20:15:48.004Z,75.60
2019-01-23T20:17:57.409Z,75.54
2019-01-23T20:20:05.595Z,75.59
2019-01-23T20:22:12.487Z,75.61
2019-01-23T20:24:19.595Z,75.94
2019-01-23T20:26:27.695Z,75.94
2019-01-23T20:28:34.921Z,75.96
2019-01-23T20:30:42.348Z,76.11
2019-01-23T20:32:49.978Z,76.14
2019-01-23T20:34:57.288Z,76.41
2019-01-23T20:37:04.476Z,76.72
2019-01-23T20:39:11.972Z,76.50
2019-01-23T20:41:18.950Z,76.61
2019-01-23T20:43:25.981Z,76.54
2019-01-23T20:45:32.819Z,76.70
2019-01-23T20:47:39.701Z,76.54
2019-01-23T20:49:46.388Z,76.56
2019-01-23T20:51:53.338Z,76.80
2019-01-23T20:54:00.259Z,76.74
2019-01-23T20:56:08.518Z,76.89
2019-01-23T20:58:16.417Z,76.78
2019-01-23T21:00:32.140Z,76.83
2019-01-23T21:02:39.257Z,77.05
2019-01-23T21:04:46.197Z,77.16
2019-01-23T21:06:53.010Z,77.25
2019-01-23T21:09:00.317Z,77.27
2019-01-23T21:11:08.635Z,77.43
2019-01-23T21:13:16.760Z,77.47
2019-01-23T21:15:28.703Z,77.08
2019-01-23T21:17:35.735Z,76.95
2019-01-23T21:19:43.314Z,76.76
2019-01-23T21:21:50.127Z,76.81
2019-01-23T21:23:57.567Z,76.71
2019-01-23T21:26:04.527Z,76.87
2019-01-23T21:28:11.426Z,76.94
2019-01-23T21:30:24.367Z,76.97
2019-01-23T21:32:31.456Z,76.88
2019-01-23T21:34:38.462Z,76.88
2019-01-23T21:36:45.496Z,77.07
2019-01-23T21:38:52.187Z,76.90
2019-01-23T21:40:58.734Z,76.84
2019-01-23T21:43:06.574Z,76.71
2019-01-23T21:45:15.707Z,76.70
2019-01-23T21:47:23.449Z,76.72
2019-01-23T21:49:29.988Z,76.94
2019-01-23T21:51:37.722Z,76.79
2019-01-23T21:53:44.513Z,76.71
2019-01-23T21:55:51.189Z,76.63
2019-01-23T21:57:57.845Z,76.71
2019-01-23T22:00:17.007Z,76.74
2019-01-23T22:02:23.547Z,76.82
2019-01-23T22:04:30.212Z,76.90
2019-01-23T22:06:43.266Z,76.88
2019-01-23T22:09:04.921Z,76.88
2019-01-23T22:11:16.144Z,76.91
2019-01-23T22:13:26.890Z,76.86
2019-01-23T22:15:34.620Z,76.84
2019-01-23T22:17:41.699Z,76.88
2019-01-23T22:19:48.640Z,76.72
2019-01-23T22:21:54.919Z,76.82
2019-01-23T22:24:14.472Z,76.79
2019-01-23T22:26:23.079Z,77.01
2019-01-23T22:28:29.525Z,77.22
2019-01-23T22:30:42.226Z,77.43
2019-01-23T22:32:50.096Z,77.62
2019-01-23T22:34:59.680Z,77.80
2019-01-23T22:37:06.090Z,78.00
2019-01-23T22:39:13.419Z,78.04
2019-01-23T22:41:19.996Z,78.12
2019-01-23T22:43:26.444Z,78.15
2019-01-23T22:45:34.357Z,78.33
2019-01-23T22:47:40.738Z,78.54
2019-01-23T22:49:48.046Z,78.44
2019-01-23T22:51:54.363Z,78.66
2019-01-23T22:54:02.403Z,78.81
2019-01-23T22:56:08.786Z,78.85
2019-01-23T22:58:18.316Z,79.03
2019-01-23T23:00:43.373Z,79.00
2019-01-23T23:02:49.764Z,79.00
2019-01-23T23:04:56.293Z,78.90
2019-01-23T23:07:02.564Z,79.01
2019-01-23T23:09:11.373Z,79.21
2019-01-23T23:11:18.901Z,79.45
2019-01-23T23:13:25.293Z,79.54
2019-01-23T23:15:32.146Z,79.82
2019-01-23T23:17:38.485Z,79.64
2019-01-23T23:19:44.938Z,79.66
2019-01-23T23:21:51.340Z,79.69
2019-01-23T23:23:57.863Z,79.86
2019-01-23T23:26:06.018Z,79.81
2019-01-23T23:28:13.618Z,80.06
2019-01-23T23:30:24.736Z,80.03
2019-01-23T23:32:30.791Z,80.03
2019-01-23T23:34:37.130Z,79.93
2019-01-23T23:36:43.204Z,79.98
2019-01-23T23:38:51.557Z,80.07
2019-01-23T23:41:00.844Z,80.16
2019-01-23T23:43:07.413Z,80.25
2019-01-23T23:45:17.979Z,80.17
2019-01-23T23:47:24.501Z,80.12
2019-01-23T23:49:30.681Z,80.05
2019-01-23T23:51:37.219Z,79.95
2019-01-23T23:53:43.510Z,79.92
2019-01-23T23:55:52.521Z,79.87
2019-01-23T23:58:01.052Z,79.97
